Tiempo atmosférico en la estación meteorológica de Vandellós, Tarragona (22 m.)



Fecha
DESCASC
Temp. máxima en grados centígrados (hora)
DESCASC
Temp. mínima en grados centígrados (hora)
DESCASC
Temp. media en grados centígrados
DESCASC
Racha de viento máxima en m/sg (hora)
DESCASC
Velocidad máxima media en intervalos de 10 minutos(hora)
DESCASC
Precipitaciones diarias en mm
DESCASC
Precipitaciones de 00:00 a 06:00 en mm
DESCASC
Precipitaciones de 06:00 a 12:00 en mm
DESCASC
Precipitaciones de 12:00 a 18:00 en mm
DESCASC
Precipitaciones de 18:00 a 24:00 en mm
DESCASC
13-10-2019 24.9 (14:50) 20.8 (05:50) 22.8 5.28 (08:50) 2.5 (14:00) 0 0 0 0 0
12-10-2019 25.8 (13:50) 19.9 (08:40) 22.8 5.56 (11:40) 2.22 (13:10) 0 0 0 0 0
10-10-2019 21.1 (12:50) 18 (00:00) 19.6 5.83 (00:30) 2.78 (09:30) 1 0 0 1 0
09-10-2019 25.9 (14:40) 19.7 (00:00) 22.8 7.5 (23:00) 3.06 (23:00) 0 0 0 0 0
08-10-2019 25.6 (13:50) 17.5 (00:00) 21.6 6.11 (16:50) 2.78 (12:00) 0 0 0 0 0
07-10-2019 26.4 (16:50) 16.9 (00:00) 21.6 20.56 (08:50) 10.28 (08:10) 0 0 0 0 0
06-10-2019 27.1 (16:10) 16.5 (00:00) 21.8 16.39 (23:40) 7.22 (23:00) 0 0 0 0 0
05-10-2019 26.6 (14:40) 18 (02:00) 22.3 13.33 (04:10) 7.78 (04:30) 0 0 0 0 0
04-10-2019 25.6 (12:20) 16.6 (00:00) 21.1 8.06 (06:10) 2.78 (14:50) 0 0 0 0 0
03-10-2019 26.4 (16:50) 17 (00:00) 21.7 19.72 (00:50) 9.72 (00:40) 0 0 0 0 0
02-10-2019 26.6 (16:20) 19.1 (00:00) 22.9 23.33 (05:50) 12.22 (08:40) 0 0 0 0 0
01-10-2019 26.4 (15:00) 20.7 (00:00) 23.6 5.56 (15:40) 2.78 (16:10) -- -- -- 0.1 0
30-09-2019 26.4 (14:50) 19.7 (00:00) 23.1 6.39 (05:30) 2.5 (12:40) -- -- -- -- --
29-09-2019 26.9 (14:40) 19.6 (00:00) 23.3 7.5 (16:20) 2.78 (12:10) -- -- -- -- --
28-09-2019 24.9 (10:30) 19.9 (00:00) 22.4 7.22 (12:20) 3.33 (11:40) -- -- -- -- --
27-09-2019 26.5 (13:00) 20.1 (00:00) 23.3 3.89 (11:40) 1.94 (11:30) -- -- -- -- --
26-09-2019 26.5 (15:10) 18.3 (00:00) 22.4 6.11 (08:40) 3.06 (16:20) 0 0 0 0 0
25-09-2019 27.5 (15:10) 20 (00:00) 23.8 8.61 (13:20) 3.61 (16:40) 0.3 0.1 0.1 0 0.1
24-09-2019 28.6 (12:20) 16.8 (00:00) 22.7 7.5 (12:30) 3.06 (12:30) 0.1 0 0 0 0.1
23-09-2019 25.9 (15:10) 18.8 (00:00) 22.3 8.89 (00:20) 3.33 (14:50) 0.4 0.1 0.1 0.1 0.1
22-09-2019 26.6 (14:00) 19.6 (00:00) 23.1 10 (18:40) 3.61 (18:40) 0.4 0.1 0.1 0.1 0.1
21-09-2019 26.7 (14:00) 18.1 (00:00) 22.4 7.78 (01:20) 3.33 (05:00) 1.5 0.3 0.8 0.2 0.2
20-09-2019 25.9 (14:20) 20.2 (00:00) 23.1 7.22 (12:30) 3.06 (12:40) 0 0 0 0 0
19-09-2019 27.1 (14:10) 20.7 (00:00) 23.9 5 (08:20) 2.78 (08:20) 0 0 0 0 0
18-09-2019 28.9 (14:10) 19.3 (00:00) 24.1 6.11 (19:30) 2.5 (19:30) 0 0 0 0 0
17-09-2019 27.4 (13:20) 18.2 (00:00) 22.8 4.72 (16:30) 2.22 (16:20) 0 0 0 0 0

Gráficas

Temp. máximas Temp. mínimas Temp. medias Precipitaciones Rachas de viento máximas Velocidades máximas media en intervalos de 10 minutos

Datos horarios

Fecha y hora oficial Temperatura (ºC) Velocidad del viento (km/h) Dirección del viento Racha (km/h) Dirección de racha Precipitación (mm) Presión (hPa) Tendencia (hPa) Humedad (%)
2019-10-16 23:00:00 19 7 Sudoeste 17 Oeste 0 -- -- 45
2019-10-16 22:00:00 18.8 9 Sudoeste 19 Sudoeste 0 -- -- 55
2019-10-16 21:00:00 18.5 8 Sudoeste 17 Sudoeste 0 -- -- 61
2019-10-16 20:00:00 18.8 7 Sudoeste 17 Sudoeste 0 -- -- 54
2019-10-16 19:00:00 19.8 5 Sudoeste 18 Sur 0 -- -- 49
2019-10-16 18:00:00 21 6 Sur 19 Sur 0 -- -- 44
2019-10-16 17:00:00 21.6 5 Sur 16 Sur 0 -- -- 40
2019-10-16 16:00:00 22.1 7 Sur 16 Sur 0 -- -- 39
2019-10-16 15:00:00 22.9 6 Este 16 Este 0 -- -- 37
2019-10-16 14:00:00 23.2 7 Este 18 Este 0 -- -- 36
2019-10-16 13:00:00 23.1 3 Nordeste 15 Este 0 -- -- 37
2019-10-16 12:00:00 22.2 7 Este 17 Este 0 -- -- 39
2019-10-16 11:00:00 22 5 Este 15 Noroeste 0 -- -- 38
2019-10-16 10:00:00 20.3 10 Noroeste 20 Noroeste 0 -- -- 34
2019-10-16 09:00:00 19.2 10 Noroeste 24 Noroeste 0 -- -- 35
2019-10-16 08:00:00 18.8 14 Noroeste 25 Noroeste 0 -- -- 34
2019-10-16 07:00:00 18.8 12 Noroeste 25 Noroeste 0 -- -- 34
2019-10-16 06:00:00 18.6 11 Noroeste 32 Noroeste 0 -- -- 35
2019-10-16 05:00:00 18.3 15 Noroeste 27 Oeste 0 -- -- 35
2019-10-16 04:00:00 18.5 10 Noroeste 29 Oeste 0 -- -- 35
2019-10-16 03:00:00 16.6 0 Calma 20 Sudoeste 0 -- -- 37
2019-10-16 02:00:00 17.5 0 Calma 15 Sudoeste 0 -- -- 35
2019-10-16 01:00:00 16.8 0 Calma 13 Sudoeste 0 -- -- 36
2019-10-16 00:00:00 17.1 0 Calma 15 Noroeste 0 -- -- 35
2019-10-15 23:00:00 17.7 3 Noroeste 19 Sudoeste 0 -- -- 35
2019-10-15 22:00:00 17 3 Sudoeste 20 Sudoeste 0 -- -- 35
2019-10-15 21:00:00 18.2 5 Noroeste 21 Noroeste 0 -- -- 33
2019-10-15 20:00:00 19.1 6 Oeste 22 Sudoeste 0 -- -- 33
2019-10-15 19:00:00 19.4 3 Sudoeste 28 Sudoeste 0 -- -- 32
2019-10-15 18:00:00 20.3 9 Sudoeste 31 Sudoeste 0 -- -- 30
2019-10-15 17:00:00 20.6 8 Sudoeste 34 Noroeste 0 -- -- 31
2019-10-15 16:00:00 20.3 6 Oeste 42 Sudoeste 0 -- -- 32
2019-10-15 15:00:00 20.3 12 Noroeste 40 Noroeste 0 -- -- 33
2019-10-15 14:00:00 20.4 8 Sudeste 77 Noroeste 0 -- -- 34
2019-10-15 13:00:00 17.8 32 Noroeste 72 Norte 0 -- -- 37
2019-10-15 12:00:00 16.6 44 Noroeste 94 Noroeste 0 -- -- 40
2019-10-15 11:00:00 15.6 47 Noroeste 98 Noroeste 0 -- -- 41
2019-10-15 10:00:00 14.3 32 Noroeste 64 Noroeste 0 -- -- 44
2019-10-15 09:00:00 14.4 11 Oeste 52 Sudoeste 0 -- -- 45
2019-10-15 08:00:00 14.7 16 Oeste 51 Noroeste 0 -- -- 47
2019-10-15 07:00:00 14 3 Sudeste 68 Oeste 0 -- -- 46
2019-10-15 06:00:00 15 22 Noroeste 68 Oeste 0 -- -- 45
2019-10-15 05:00:00 16 24 Noroeste 70 Noroeste 0 -- -- 42
2019-10-15 04:00:00 16.6 27 Noroeste 71 Noroeste 0 -- -- 43
2019-10-15 03:00:00 17.1 33 Noroeste 61 Noroeste 0 -- -- 45
2019-10-15 02:00:00 17.5 30 Noroeste 69 Noroeste 0 -- -- 45
2019-10-15 01:00:00 17.5 32 Noroeste 61 Noroeste 0 -- -- 46
2019-10-15 00:00:00 19.9 6 Sudoeste 12 Sudoeste 0 -- -- 86
2019-10-14 23:00:00 20.4 8 Sudoeste 15 Sudoeste 0.1 -- -- 87
2019-10-14 22:00:00 20.4 0 Calma 8 Norte 0 -- -- 90
2019-10-14 21:00:00 20.5 4 Norte 14 Nordeste 0 -- -- 90
2019-10-14 20:00:00 20.6 4 Nordeste 13 Nordeste 0 -- -- 89
2019-10-14 19:00:00 21.1 4 Nordeste 13 Nordeste 0 -- -- 91
2019-10-14 18:00:00 21.1 5 Nordeste 20 Nordeste 0 -- -- 92
2019-10-14 17:00:00 20.9 8 Nordeste 19 Nordeste 0.3 -- -- 93
2019-10-14 16:00:00 21.1 3 Nordeste 12 Norte 1.5 -- -- 92
2019-10-14 15:00:00 22.1 5 Nordeste 15 Este 0 -- -- 82
2019-10-14 14:00:00 22.9 5 Nordeste 20 Nordeste 0 -- -- 79
2019-10-14 13:00:00 22.9 8 Nordeste 23 Nordeste 0 -- -- 79
2019-10-14 12:00:00 22.3 9 Nordeste 23 Nordeste 0 -- -- 79
2019-10-14 11:00:00 21.9 8 Nordeste 19 Nordeste 0 -- -- 84
2019-10-14 10:00:00 20.7 6 Norte 14 Norte 0 -- -- 84
2019-10-14 09:00:00 20.1 6 Norte 19 Nordeste 0 -- -- 86
2019-10-14 08:00:00 19.8 5 Norte 17 Norte 0 -- -- 87
2019-10-14 07:00:00 20 6 Norte 17 Nordeste 0 -- -- 86
2019-10-14 06:00:00 19.8 7 Nordeste 17 Nordeste 0 -- -- 86
2019-10-14 05:00:00 19.8 6 Norte 17 Nordeste 0 -- -- 85
2019-10-14 04:00:00 19.8 5 Norte 14 Norte 0 -- -- 88
2019-10-14 03:00:00 20.2 6 Norte 17 Nordeste 0 -- -- 88
2019-10-14 02:00:00 20.5 6 Norte 18 Norte 0 -- -- 88
2019-10-14 01:00:00 21.2 7 Nordeste 17 Nordeste 0 -- -- 90
2019-10-14 00:00:00 21.4 5 Nordeste 17 Nordeste 0 -- -- 89
2019-10-13 23:00:00 21.3 6 Nordeste 15 Nordeste 0 -- -- 89
2019-10-13 22:00:00 21.2 6 Nordeste 18 Nordeste 0 -- -- 89
2019-10-13 21:00:00 21.6 4 Nordeste 16 Sudeste 0 -- -- 89
2019-10-13 20:00:00 21.6 2 Este 12 Este 0 -- -- 88
2019-10-13 19:00:00 21.9 5 Nordeste 14 Nordeste 0 -- -- 85
2019-10-13 18:00:00 22.7 5 Nordeste 18 Nordeste 0 -- -- 83
2019-10-13 17:00:00 23.5 7 Nordeste 16 Este 0 -- -- 78
2019-10-13 16:00:00 23.6 6 Nordeste 17 Este 0 -- -- 76
2019-10-13 15:00:00 24.3 8 Nordeste 19 Nordeste 0 -- -- 73
2019-10-13 14:00:00 24.1 9 Nordeste 19 Este 0 -- -- 72
2019-10-13 13:00:00 23.3 6 Nordeste 18 Nordeste 0 -- -- 74
2019-10-13 12:00:00 23.4 7 Nordeste 18 Nordeste 0 -- -- 76
2019-10-13 11:00:00 22.2 6 Nordeste 18 Nordeste 0 -- -- 84
2019-10-13 10:00:00 22.2 8 Nordeste 18 Nordeste 0 -- -- 84
2019-10-13 09:00:00 21.2 5 Nordeste 19 Nordeste 0 -- -- 91
2019-10-13 08:00:00 20.9 6 Nordeste 18 Nordeste 0 -- -- 91
2019-10-13 07:00:00 21 6 Nordeste 17 Este 0 -- -- 91
2019-10-13 06:00:00 21 5 Este 18 Nordeste 0 -- -- 91
2019-10-13 05:00:00 21 5 Nordeste 16 Nordeste 0 -- -- 91
2019-10-13 04:00:00 21.3 7 Nordeste 17 Este 0 -- -- 89
2019-10-13 03:00:00 21.3 5 Nordeste 15 Este 0 -- -- 90
2019-10-13 02:00:00 21.2 5 Este 17 Este 0 -- -- 91
2019-10-13 01:00:00 21.7 6 Este 17 Este 0 -- -- 89
2019-10-13 00:00:00 21.5 5 Nordeste 13 Nordeste 0 -- -- 89
2019-10-12 23:00:00 21.3 4 Nordeste 14 Nordeste 0 -- -- 86
2019-10-12 22:00:00 21.1 5 Nordeste 11 Nordeste 0 -- -- 86
2019-10-12 21:00:00 20.7 3 Norte 10 Norte 0 -- -- 86
2019-10-12 20:00:00 21.4 2 Este 11 Sudeste 0 -- -- 84
2019-10-12 19:00:00 22.2 3 Este 12 Este 0 -- -- 77
2019-10-12 18:00:00 22.8 5 Este 15 Este 0 -- -- 75
2019-10-12 17:00:00 23.9 5 Este 13 Este 0 -- -- 71
2019-10-12 16:00:00 23.9 6 Este 15 Este 0 -- -- 72
2019-10-12 15:00:00 24.2 7 Sudeste 17 Sudeste 0 -- -- 72
2019-10-12 14:00:00 25.1 6 Sudeste 17 Sudeste 0 -- -- 67
2019-10-12 13:00:00 24.5 7 Sudeste 17 Sur 0 -- -- 68
2019-10-12 12:00:00 24.1 7 Sur 20 Sur 0 -- -- 74
2019-10-12 11:00:00 22.7 3 Sur 8 Sudeste 0 -- -- 83
2019-10-12 10:00:00 21.6 0 Calma 7 Sudoeste 0 -- -- 85
2019-10-12 09:00:00 20.4 2 Sudoeste 8 Sudoeste 0 -- -- 89
2019-10-12 08:00:00 20.4 4 Sudoeste 8 Sudoeste 0 -- -- 87
2019-10-12 07:00:00 20.4 5 Sudoeste 9 Sudoeste 0 -- -- 86
2019-10-12 06:00:00 20.6 4 Sudoeste 12 Sudoeste 0 -- -- 83
2019-10-12 05:00:00 20.9 5 Sudoeste 14 Sudoeste 0 -- -- 82
2019-10-12 04:00:00 21.4 3 Sudoeste 17 Sur 0 -- -- 86
2019-10-12 03:00:00 21.5 4 Sur 13 Sur 0 -- -- 89
2019-10-12 02:00:00 21.4 4 Sur 14 Sur 0 -- -- 88
2019-10-12 01:00:00 21.4 4 Sur 15 Sur 0 -- -- 87
2019-10-12 00:00:00 21.7 6 Sur 22 Sur 0 -- -- 85
2019-10-11 23:00:00 21.9 4 Sur 13 Sur 0 -- -- 85
2019-10-11 22:00:00 21.7 4 Sur 17 Sur 0 -- -- 84
2019-10-11 21:00:00 21.9 5 Sur 17 Sudoeste 0 -- -- 81
2019-10-11 20:00:00 21.9 4 Sudoeste 14 Sur 0 -- -- 78
2019-10-11 19:00:00 22.1 6 Sur 17 Sur 0 -- -- 77
2019-10-11 18:00:00 22.7 8 Sur 18 Sur 0 -- -- 76
2019-10-11 17:00:00 23.1 9 Sur 19 Sur 0 -- -- 74
2019-10-11 16:00:00 22.8 4 Sur 13 Sur 0 -- -- 73
2019-10-11 15:00:00 24.2 4 Sur 14 Sudeste 0 -- -- 68
2019-10-11 14:00:00 23.8 4 Sudeste 10 Sudeste 0 -- -- 70
2019-10-11 13:00:00 22.1 5 Este 10 Este 0 -- -- 76
2019-10-11 12:00:00 21.7 3 Este 10 Este 0 -- -- 76
2019-10-11 11:00:00 21.4 3 Nordeste 10 Este 0 -- -- 76
2019-10-11 10:00:00 20.8 3 Este 9 Este 0 -- -- 78
2019-10-11 09:00:00 19.6 3 Nordeste 7 Nordeste 0 -- -- 82
2019-10-11 08:00:00 19.1 0 Calma 8 Norte 0 -- -- 80
2019-10-11 07:00:00 18.9 4 Nordeste 8 Norte 0 -- -- 80
2019-10-11 06:00:00 18.9 3 Norte 13 Nordeste 0 -- -- 79
2019-10-11 05:00:00 19.1 6 Nordeste 16 Norte 0 -- -- 78
2019-10-11 04:00:00 19.1 5 Norte 11 Nordeste 0 -- -- 78
2019-10-11 03:00:00 19.2 5 Nordeste 12 Nordeste 0 -- -- 78
2019-10-11 02:00:00 19.3 6 Nordeste 15 Nordeste 0 -- -- 77
2019-10-11 01:00:00 19.1 5 Norte 18 Norte 0 -- -- 78
2019-10-11 00:00:00 18.5 4 Norte 17 Norte 0 -- -- 80
2019-10-10 23:00:00 18.9 5 Nordeste 13 Nordeste 0 -- -- 78
2019-10-10 22:00:00 18.9 5 Norte 14 Nordeste 0 -- -- 77
2019-10-10 21:00:00 19 7 Nordeste 15 Nordeste 0 -- -- 75
2019-10-10 20:00:00 19 6 Nordeste 14 Nordeste 0 -- -- 75
2019-10-10 19:00:00 19.3 5 Nordeste 14 Norte 0 -- -- 73
2019-10-10 18:00:00 19.6 4 Nordeste 13 Este 0 -- -- 73
2019-10-10 17:00:00 19.7 4 Nordeste 10 Nordeste 0 -- -- 64
2019-10-10 16:00:00 20 4 Nordeste 12 Nordeste 0 -- -- 63
2019-10-10 15:00:00 20.3 5 Nordeste 13 Este 0 -- -- 53
2019-10-10 14:00:00 20.5 4 Este 10 Este 0 -- -- 50
2019-10-10 13:00:00 21 4 Este 9 Este 1 -- -- 44
2019-10-10 12:00:00 20.7 0 Calma 12 Noroeste 0 -- -- 44
2019-10-10 11:00:00 19.9 0 Calma 5 Norte 0 -- -- 46
2019-10-10 10:00:00 19.2 6 Noroeste 16 Oeste 0 -- -- 45
2019-10-10 09:00:00 19 6 Noroeste 10 Noroeste 0 -- -- 45
2019-10-10 08:00:00 18.5 3 Norte 12 Noroeste 0 -- -- 49
2019-10-10 07:00:00 18.5 0 Calma 19 Noroeste 0 -- -- 58
2019-10-10 06:00:00 18.1 3 Norte 9 Norte 0 -- -- 65
2019-10-10 05:00:00 18 3 Norte 13 Este 0 -- -- 79
2019-10-10 04:00:00 18.3 6 Nordeste 15 Nordeste 0 -- -- 85
2019-10-10 03:00:00 18.6 7 Nordeste 17 Nordeste 0 -- -- 81
2019-10-10 02:00:00 18.9 6 Nordeste 15 Norte 0 -- -- 82
2019-10-10 01:00:00 19.2 7 Nordeste 21 Norte 0 -- -- 83
2019-10-10 00:00:00 19.7 6 Norte 22 Nordeste 0 -- -- 85
2019-10-09 23:00:00 20.3 11 Nordeste 27 Nordeste 0 -- -- 86
2019-10-09 22:00:00 20.8 3 Sudoeste 8 Sudoeste 0 -- -- 82
2019-10-09 21:00:00 21.4 0 Calma 8 Sudoeste 0 -- -- 81
2019-10-09 20:00:00 22.2 3 Sudoeste 13 Sur 0 -- -- 78
2019-10-09 19:00:00 22.7 4 Sur 14 Sur 0 -- -- 77
2019-10-09 18:00:00 23.2 5 Sur 16 Sur 0 -- -- 75
2019-10-09 17:00:00 23.6 8 Sur 18 Sudeste 0 -- -- 69
2019-10-09 16:00:00 23.8 8 Sur 19 Sudeste 0 -- -- 66
2019-10-09 15:00:00 25.7 7 Sudeste 18 Sudeste 0 -- -- 60
2019-10-09 14:00:00 24.1 6 Este 20 Noroeste 0 -- -- 63
2019-10-09 13:00:00 22.9 9 Noroeste 18 Noroeste 0 -- -- 63
2019-10-09 12:00:00 23.3 6 Sur 16 Sur 0 -- -- 68
2019-10-09 11:00:00 23.1 3 Sur 13 Sudoeste 0 -- -- 73
2019-10-09 10:00:00 22.4 6 Sudoeste 14 Sudoeste 0 -- -- 73
2019-10-09 09:00:00 21.5 5 Sudoeste 12 Sudoeste 0 -- -- 78
2019-10-09 08:00:00 21.2 5 Sudoeste 13 Sudoeste 0 -- -- 81
2019-10-09 07:00:00 21.4 4 Sudoeste 13 Sudeste 0 -- -- 81
2019-10-09 06:00:00 21.5 6 Sur 18 Sur 0 -- -- 82
2019-10-09 05:00:00 21.1 3 Sur 15 Sudeste 0 -- -- 87
2019-10-09 04:00:00 20.9 4 Sur 10 Sudeste 0 -- -- 89
2019-10-09 03:00:00 20.5 2 Sudoeste 6 Sudoeste 0 -- -- 89
2019-10-09 02:00:00 20.5 3 Sudoeste 6 Sudoeste 0 -- -- 88
2019-10-09 01:00:00 21.4 0 Calma 8 Sudoeste 0 -- -- 84
2019-10-09 00:00:00 21.6 3 Sudoeste 8 Sudoeste 0 -- -- 83
2019-10-08 23:00:00 21.7 3 Sudoeste 9 Sudoeste 0 -- -- 82
2019-10-08 22:00:00 22 3 Sudoeste 10 Sudoeste 0 -- -- 80
2019-10-08 21:00:00 22.2 4 Sudoeste 12 Sudoeste 0 -- -- 79
2019-10-08 20:00:00 22.1 3 Sudoeste 15 Sudoeste 0 -- -- 77
2019-10-08 19:00:00 22.6 5 Sur 19 Sur 0 -- -- 76
2019-10-08 18:00:00 23.6 5 Sur 21 Sur 0 -- -- 67
2019-10-08 17:00:00 24.1 6 Sur 22 Sur 0 -- -- 61
2019-10-08 16:00:00 24.2 7 Sur 20 Sudeste 0 -- -- 63
2019-10-08 15:00:00 24.7 5 Sudeste 17 Sudeste 0 -- -- 62
2019-10-08 14:00:00 24.9 6 Sur 14 Sudeste 0 -- -- 62
2019-10-08 13:00:00 24.5 4 Sur 17 Sur 0 -- -- 63
2019-10-08 12:00:00 23.3 10 Sur 17 Sur 0 -- -- 64
2019-10-08 11:00:00 23.2 4 Sudeste 10 Sur 0 -- -- 66
2019-10-08 10:00:00 21 4 Este 7 Este 0 -- -- 73
2019-10-08 09:00:00 18.3 0 Calma 4 Sudoeste 0 -- -- 86
2019-10-08 08:00:00 17.6 0 Calma 4 Sur 0 -- -- 87
2019-10-08 07:00:00 18.1 0 Calma 5 Este 0 -- -- 87
2019-10-08 06:00:00 18.6 0 Calma 6 Sudoeste 0 -- -- 85
2019-10-08 05:00:00 18.1 0 Calma 6 Oeste 0 -- -- 86
2019-10-08 04:00:00 17.9 0 Calma 8 Sudoeste 0 -- -- 84
2019-10-08 03:00:00 18.2 0 Calma 6 Noroeste 0 -- -- 82
2019-10-08 02:00:00 17.8 3 Noroeste 6 Sudeste 0 -- -- 78
2019-10-08 01:00:00 18.7 2 Sudoeste 8 Oeste 0 -- -- 74
2019-10-08 00:00:00 18.7 0 Calma 7 Oeste 0 -- -- 67
2019-10-07 23:00:00 19.5 0 Calma 15 Sudoeste 0 -- -- 63
2019-10-07 22:00:00 20.2 7 Sudoeste 19 Sudoeste 0 -- -- 63
2019-10-07 21:00:00 20.4 8 Sudoeste 19 Oeste 0 -- -- 57
2019-10-07 20:00:00 21.2 8 Sudoeste 21 Sudoeste 0 -- -- 53
2019-10-07 19:00:00 22.7 8 Sur 23 Sudoeste 0 -- -- 49
2019-10-07 18:00:00 25.7 4 Sudoeste 24 Sudoeste 0 -- -- 36
2019-10-07 17:00:00 25.8 9 Oeste 28 Noroeste 0 -- -- 36
2019-10-07 16:00:00 25.6 7 Oeste 39 Noroeste 0 -- -- 37
2019-10-07 15:00:00 23.8 22 Noroeste 51 Noroeste 0 -- -- 39
2019-10-07 14:00:00 22.4 18 Noroeste 48 Noroeste 0 -- -- 40
2019-10-07 13:00:00 21.5 6 Noroeste 48 Noroeste 0 -- -- 43
2019-10-07 12:00:00 19.5 18 Noroeste 60 Noroeste 0 -- -- 45
2019-10-07 11:00:00 18.5 21 Noroeste 63 Noroeste 0 -- -- 48
2019-10-07 10:00:00 17.7 30 Noroeste 71 Noroeste 0 -- -- 50
2019-10-07 09:00:00 17.1 30 Noroeste 74 Noroeste 0 -- -- 50
2019-10-07 08:00:00 17 33 Noroeste 72 Noroeste 0 -- -- 50
2019-10-07 07:00:00 17.3 28 Noroeste 66 Noroeste 0 -- -- 49
2019-10-07 06:00:00 17.8 28 Noroeste 62 Noroeste 0 -- -- 47
2019-10-07 05:00:00 18.2 27 Noroeste 70 Oeste 0 -- -- 48
2019-10-07 04:00:00 19.4 25 Noroeste 58 Oeste 0 -- -- 50
2019-10-07 03:00:00 19.4 18 Noroeste 46 Oeste 0 -- -- 48
2019-10-07 02:00:00 20.1 16 Oeste 46 Oeste 0 -- -- 49
2019-10-07 01:00:00 21.4 18 Oeste 52 Noroeste 0 -- -- 50
2019-10-07 00:00:00 22.3 20 Noroeste 59 Noroeste 0 -- -- 44
2019-10-06 23:00:00 23.3 26 Noroeste 56 Noroeste 0 -- -- 41
2019-10-06 22:00:00 24.1 18 Oeste 45 Oeste 0 -- -- 45
2019-10-06 21:00:00 24.3 3 Oeste 29 Oeste 0 -- -- 45
2019-10-06 20:00:00 24.3 7 Sudoeste 23 Sudoeste 0 -- -- 45
2019-10-06 19:00:00 22.7 5 Sur 24 Sur 0 -- -- 71
2019-10-06 18:00:00 23.7 5 Sur 26 Sur 0 -- -- 65
2019-10-06 17:00:00 26.9 6 Sudoeste 29 Sudoeste 0 -- -- 35
2019-10-06 16:00:00 26.9 7 Sudoeste 27 Sudoeste 0 -- -- 35
2019-10-06 15:00:00 26.4 2 Oeste 22 Sudoeste 0 -- -- 34
2019-10-06 14:00:00 25.8 5 Sudoeste 21 Noroeste 0 -- -- 37
2019-10-06 13:00:00 24.6 5 Este 18 Este 0 -- -- 44
2019-10-06 12:00:00 23.5 5 Sudeste 26 Sudeste 0 -- -- 46
2019-10-06 11:00:00 22.8 9 Este 20 Oeste 0 -- -- 49
2019-10-06 10:00:00 20.9 4 Sur 27 Sudoeste 0 -- -- 52
2019-10-06 09:00:00 19.7 3 Noroeste 20 Noroeste 0 -- -- 54
2019-10-06 08:00:00 18.1 3 Sudoeste 14 Sudoeste 0 -- -- 58
2019-10-06 07:00:00 16.9 0 Calma 6 Sur 0 -- -- 85
2019-10-06 06:00:00 17 0 Calma 5 Oeste 0 -- -- 83
2019-10-06 05:00:00 17.4 0 Calma 6 Noroeste 0 -- -- 80
2019-10-06 04:00:00 17.7 0 Calma 5 Oeste 0 -- -- 86
2019-10-06 03:00:00 18.3 2 Sudoeste 5 Sudoeste 0 -- -- 86
2019-10-06 02:00:00 18.1 0 Calma 7 Norte 0 -- -- 85
2019-10-06 01:00:00 19.1 3 Norte 10 Norte 0 -- -- 86
2019-10-06 00:00:00 19.8 4 Norte 14 Norte 0 -- -- 86
2019-10-05 23:00:00 20.3 5 Norte 15 Norte 0 -- -- 84
2019-10-05 22:00:00 19.7 3 Norte 6 Norte 0 -- -- 83
2019-10-05 21:00:00 19.3 0 Calma 8 Norte 0 -- -- 68
2019-10-05 20:00:00 20.5 4 Nordeste 8 Norte 0 -- -- 60
2019-10-05 19:00:00 22.5 2 Nordeste 6 Nordeste 0 -- -- 53
2019-10-05 18:00:00 23.2 5 Este 10 Este 0 -- -- 52
2019-10-05 17:00:00 23.3 4 Sudeste 13 Sur 0 -- -- 54
2019-10-05 16:00:00 23.9 5 Sudeste 16 Este 0 -- -- 51
2019-10-05 15:00:00 25.7 9 Este 19 Este 0 -- -- 48
2019-10-05 14:00:00 25.5 7 Sudeste 17 Sudeste 0 -- -- 46
2019-10-05 13:00:00 24.1 10 Sur 20 Noroeste 0 -- -- 47
2019-10-05 12:00:00 23.8 6 Sudeste 17 Sudeste 0 -- -- 47
2019-10-05 11:00:00 22.4 5 Sur 20 Sudoeste 0 -- -- 49
2019-10-05 10:00:00 20.9 6 Nordeste 23 Sudoeste 0 -- -- 53
2019-10-05 09:00:00 19.8 4 Sur 24 Sudoeste 0 -- -- 56
2019-10-05 08:00:00 18.7 2 Sudeste 21 Noroeste 0 -- -- 57
2019-10-05 07:00:00 19.7 7 Este 25 Nordeste 0 -- -- 54
2019-10-05 06:00:00 20.7 7 Noroeste 46 Noroeste 0 -- -- 52
2019-10-05 05:00:00 21 28 Noroeste 48 Noroeste 0 -- -- 50
2019-10-05 04:00:00 21.8 14 Noroeste 33 Oeste 0 -- -- 49
2019-10-05 03:00:00 18.7 2 Sudeste 10 Sudeste 0 -- -- 86
2019-10-05 02:00:00 18.1 0 Calma 6 Norte 0 -- -- 87
2019-10-05 01:00:00 18.4 2 Nordeste 9 Nordeste 0 -- -- 82
2019-10-05 00:00:00 18.7 0 Calma 4 Norte 0 -- -- 80
2019-10-04 23:00:00 19.3 0 Calma 8 Sudoeste 0 -- -- 80
2019-10-04 22:00:00 20.1 0 Calma 9 Sudoeste 0 -- -- 73
2019-10-04 21:00:00 21.3 5 Sudoeste 13 Sudoeste 0 -- -- 69
2019-10-04 20:00:00 22 7 Sudoeste 14 Sudoeste 0 -- -- 66
2019-10-04 19:00:00 22.9 4 Sudoeste 18 Sudoeste 0 -- -- 68
2019-10-04 18:00:00 23.5 6 Sur 21 Sur 0 -- -- 62
2019-10-04 17:00:00 23.2 8 Sur 20 Sur 0 -- -- 58
2019-10-04 16:00:00 23.4 8 Sur 17 Sur 0 -- -- 53
2019-10-04 15:00:00 24.4 8 Sur 18 Sudeste 0 -- -- 50
2019-10-04 14:00:00 24.5 5 Sudeste 13 Sudeste 0 -- -- 47
2019-10-04 13:00:00 24.8 7 Este 17 Este 0 -- -- 46
2019-10-04 12:00:00 25 8 Este 26 Noroeste 0 -- -- 45
2019-10-04 11:00:00 23.2 3 Noroeste 18 Sudoeste 0 -- -- 47
2019-10-04 10:00:00 21.6 5 Oeste 16 Sudoeste 0 -- -- 49
2019-10-04 09:00:00 20 2 Sudoeste 23 Sudoeste 0 -- -- 51
2019-10-04 08:00:00 18.9 3 Sur 26 Sudoeste 0 -- -- 50
2019-10-04 07:00:00 19.4 2 Sudeste 29 Oeste 0 -- -- 47
2019-10-04 06:00:00 19.8 4 Sudeste 22 Este 0 -- -- 43
2019-10-04 05:00:00 18.9 4 Sur 21 Sudoeste 0 -- -- 42
2019-10-04 04:00:00 19.5 6 Sur 21 Sudoeste 0 -- -- 40
2019-10-04 03:00:00 20.1 4 Sudoeste 17 Sudoeste 0 -- -- 41
2019-10-04 02:00:00 18.3 2 Sur 15 Sudoeste 0 -- -- 50
2019-10-04 01:00:00 17.2 0 Calma 12 Sudoeste 0 -- -- 65
2019-10-04 00:00:00 18.7 5 Sudoeste 15 Sudoeste 0 -- -- 62
2019-10-03 23:00:00 19.5 5 Sudoeste 27 Sudoeste 0 -- -- 63
2019-10-03 22:00:00 20 8 Sudoeste 17 Sudoeste 0 -- -- 62
2019-10-03 21:00:00 20 7 Sudoeste 16 Sudoeste 0 -- -- 61
2019-10-03 20:00:00 20.2 8 Sudoeste 19 Sudoeste 0 -- -- 56
2019-10-03 19:00:00 21.6 5 Sudoeste 21 Sudoeste 0 -- -- 51
2019-10-03 18:00:00 22.9 6 Sudoeste 28 Sur 0 -- -- 50
2019-10-03 17:00:00 24.1 7 Sur 23 Noroeste 0 -- -- 41
2019-10-03 16:00:00 25.6 4 Noroeste 28 Sudoeste 0 -- -- 35
2019-10-03 15:00:00 24 14 Noroeste 36 Noroeste 0 -- -- 37
2019-10-03 14:00:00 22.4 16 Noroeste 44 Noroeste 0 -- -- 40
2019-10-03 13:00:00 21.4 21 Noroeste 52 Noroeste 0 -- -- 43
2019-10-03 12:00:00 19.8 23 Noroeste 52 Noroeste 0 -- -- 46
2019-10-03 11:00:00 18.7 25 Noroeste 62 Noroeste 0 -- -- 49
2019-10-03 10:00:00 17.6 34 Noroeste 60 Noroeste 0 -- -- 51
2019-10-03 09:00:00 17.3 28 Noroeste 66 Noroeste 0 -- -- 52
2019-10-03 08:00:00 17.1 28 Noroeste 57 Noroeste 0 -- -- 51
2019-10-03 07:00:00 17.4 30 Noroeste 59 Noroeste 0 -- -- 50
2019-10-03 06:00:00 17.6 27 Noroeste 67 Noroeste 0 -- -- 50
2019-10-03 05:00:00 17.9 27 Noroeste 55 Noroeste 0 -- -- 49
2019-10-03 04:00:00 18.3 31 Noroeste 71 Noroeste 0 -- -- 49
2019-10-03 03:00:00 18.4 32 Noroeste 62 Noroeste 0 -- -- 49
2019-10-03 02:00:00 18.7 27 Noroeste 70 Noroeste 0 -- -- 48
2019-10-03 01:00:00 19.3 35 Noroeste 71 Noroeste 0 -- -- 47
2019-10-03 00:00:00 20.1 34 Noroeste 69 Noroeste 0 -- -- 46
2019-10-02 23:00:00 20.5 33 Noroeste 67 Noroeste 0 -- -- 45
2019-10-02 22:00:00 21.2 26 Noroeste 71 Oeste 0 -- -- 44
2019-10-02 21:00:00 22 27 Noroeste 62 Oeste 0 -- -- 42
2019-10-02 20:00:00 22.8 24 Noroeste 55 Oeste 0 -- -- 41
2019-10-02 19:00:00 24.1 18 Noroeste 57 Noroeste 0 -- -- 38
2019-10-02 18:00:00 25.6 19 Noroeste 57 Oeste 0 -- -- 38
2019-10-02 17:00:00 25.8 18 Noroeste 44 Noroeste 0 -- -- 37
2019-10-02 16:00:00 25.8 13 Oeste 51 Noroeste 0 -- -- 38
2019-10-02 15:00:00 25.9 17 Noroeste 70 Oeste 0 -- -- 39
2019-10-02 14:00:00 24.8 19 Noroeste 62 Noroeste 0 -- -- 39
2019-10-02 13:00:00 23.9 19 Noroeste 58 Noroeste 0 -- -- 42
2019-10-02 12:00:00 22.1 30 Noroeste 70 Noroeste 0 -- -- 44
2019-10-02 11:00:00 20.6 27 Noroeste 84 Noroeste 0 -- -- 45
2019-10-02 10:00:00 19.9 24 Noroeste 60 Oeste 0 -- -- 48
2019-10-02 09:00:00 19.3 30 Noroeste 74 Noroeste 0 -- -- 47
2019-10-02 08:00:00 19.7 17 Noroeste 50 Noroeste 0 -- -- 46
2019-10-02 07:00:00 20.2 8 Sudeste 57 Noroeste 0 -- -- 46
2019-10-02 06:00:00 20.3 37 Noroeste 84 Noroeste 0 -- -- 46
2019-10-02 05:00:00 22 34 Noroeste 77 Noroeste 0 -- -- 41
2019-10-02 04:00:00 23.2 37 Noroeste 73 Noroeste 0 -- -- 39
2019-10-02 03:00:00 23.5 29 Noroeste 77 Norte 0 -- -- 39
2019-10-02 02:00:00 25.4 32 Noroeste 66 Noroeste 0 -- -- 35
2019-10-02 01:00:00 25.1 0 Calma 27 Norte 0 -- -- 37
2019-10-02 00:00:00 21.2 0 Calma 12 Norte 0 -- -- 86
2019-10-01 23:00:00 20.8 0 Calma -- -- -- -- -- 91
2019-10-01 22:00:00 21 2 Norte 6 Norte 0 -- -- 89
2019-10-01 21:00:00 22.3 0 Calma 14 Sudoeste 0 -- -- 85
2019-10-01 20:00:00 23.2 4 Sur 16 Sudoeste 0 -- -- 81
2019-10-01 19:00:00 24.4 6 Sur 20 Sudoeste 0 -- -- 75
2019-10-01 18:00:00 24.7 6 Sur 19 Sur 0 -- -- 72
2019-10-01 17:00:00 25.1 8 Sur 20 Sur 0 -- -- 69
2019-10-01 16:00:00 25.1 9 Sur 20 Sur 0 -- -- 68
2019-10-01 15:00:00 26.2 7 Sur 18 Sur 0.1 -- -- 63
2019-10-01 14:00:00 25.4 8 Sur 19 Sudeste 0 -- -- 63
2019-10-01 13:00:00 25.3 10 Sur 19 Sur 0 -- -- 63
2019-10-01 12:00:00 25.2 7 Sur 17 Sudeste 0 -- -- 63
2019-10-01 11:00:00 23.7 6 Sur 14 Sur 0 -- -- 68
2019-10-01 10:00:00 22.7 5 Sudoeste 13 Sudoeste 0 -- -- 72
2019-10-01 09:00:00 21.8 4 Sudoeste 13 Sudoeste 0 -- -- 77
2019-10-01 08:00:00 21.4 0 Calma 10 Oeste 0 -- -- 82
2019-10-01 07:00:00 21.4 2 Sur 6 Sudoeste 0 -- -- 87
2019-10-01 06:00:00 21.6 2 Sudoeste 7 Sudoeste 0 -- -- 88
2019-10-01 05:00:00 21.3 4 Sudoeste 8 Sudoeste 0 -- -- 88
2019-10-01 04:00:00 21.4 5 Sudoeste 8 Sudoeste 0.1 -- -- 88
2019-10-01 03:00:00 21.9 3 Sudoeste 10 Sudoeste 0 -- -- 86
2019-10-01 02:00:00 21.9 4 Sudoeste 8 Sudoeste 0 -- -- 86
2019-10-01 01:00:00 22.2 3 Sudoeste 10 Sudoeste 0 -- -- 82
2019-10-01 00:00:00 22.5 3 Sudoeste 10 Sudeste 0 -- -- 80
2019-09-30 23:00:00 22.4 2 Sur 10 Sur 0 -- -- 81
2019-09-30 22:00:00 22.1 3 Sudeste 6 Sur 0 -- -- 81
2019-09-30 21:00:00 22.5 0 Calma 4 Sudeste 0 -- -- 78
2019-09-30 20:00:00 22.6 0 Calma 7 Sudeste 0 -- -- 76
2019-09-30 19:00:00 23.4 4 Sudeste 13 Sudeste 0 -- -- 72
2019-09-30 18:00:00 24.3 4 Este 12 Este 0 -- -- 73
2019-09-30 17:00:00 24.5 5 Este 13 Este 0.1 -- -- 72
2019-09-30 16:00:00 25.5 5 Este 14 Este 0 -- -- 67
2019-09-30 15:00:00 26.1 7 Este 15 Este 0 -- -- 65
2019-09-30 14:00:00 26 6 Este 16 Sudeste 0 -- -- 64
2019-09-30 13:00:00 25.3 6 Este 17 Este 0 -- -- 67
2019-09-30 12:00:00 25 6 Nordeste 17 Este 0 -- -- 63
2019-09-30 11:00:00 25.1 5 Este 16 Nordeste 0 -- -- 61
2019-09-30 10:00:00 22.9 7 Norte 14 Nordeste 0 -- -- 71
2019-09-30 09:00:00 20.9 4 Nordeste 9 Nordeste 0 -- -- 83
2019-09-30 08:00:00 19.9 3 Norte 9 Nordeste 0 -- -- 88
2019-09-30 07:00:00 20.1 5 Norte 14 Norte 0 -- -- 89
2019-09-30 06:00:00 20.2 5 Nordeste 23 Este 0.1 -- -- 92
2019-09-30 05:00:00 20 3 Norte 10 Norte 0 -- -- 91
2019-09-30 04:00:00 20.5 6 Norte 9 Norte 0 -- -- 92
2019-09-30 03:00:00 20.7 0 Calma 7 Nordeste 0 -- -- 93
2019-09-30 02:00:00 20.1 2 Norte 4 Norte 0 -- -- 92
2019-09-30 01:00:00 20 0 Calma 3 Nordeste 0 -- -- 91
2019-09-30 00:00:00 20.6 0 Calma 11 Sudoeste 0 -- -- 88
2019-09-29 23:00:00 21.6 5 Sudoeste 12 Sudoeste 0 -- -- 89
2019-09-29 22:00:00 21.7 3 Sudoeste 11 Sudoeste 0 -- -- 87
2019-09-29 21:00:00 22.2 4 Sudoeste 13 Sudoeste 0 -- -- 85
2019-09-29 20:00:00 23 7 Sudoeste 18 Sudoeste 0.1 -- -- 81
2019-09-29 19:00:00 24.2 7 Sur 23 Sur 0 -- -- 76
2019-09-29 18:00:00 25.5 6 Sur 22 Sur 0 -- -- 71
2019-09-29 17:00:00 25.5 8 Sur 27 Sur 0 -- -- 70
2019-09-29 16:00:00 25.7 8 Sur 22 Sur 0 -- -- 69
2019-09-29 15:00:00 26.2 9 Sur 23 Sur 0 -- -- 66
2019-09-29 14:00:00 26.1 8 Sur 22 Sur 0 -- -- 66
2019-09-29 13:00:00 25 9 Sur 21 Sur 0 -- -- 67
2019-09-29 12:00:00 24.7 8 Sur 20 Sur 0 -- -- 68
2019-09-29 11:00:00 23.8 9 Sur 20 Sur 0.1 -- -- 72
2019-09-29 10:00:00 22.7 6 Sudoeste 18 Sudoeste 0 -- -- 77
2019-09-29 09:00:00 21.7 8 Sudoeste 16 Sudoeste 0 -- -- 82
2019-09-29 08:00:00 20.6 6 Sudoeste 13 Sudoeste 0 -- -- 86
2019-09-29 07:00:00 20.6 6 Sudoeste 13 Sudoeste 0 -- -- 86
2019-09-29 06:00:00 20.7 3 Sudoeste 10 Sudoeste 0 -- -- 90
2019-09-29 05:00:00 20.6 0 Calma -- -- 0 -- -- 91
2019-09-29 04:00:00 20.3 0 Calma -- -- 0 -- -- 91
2019-09-29 03:00:00 20.3 0 Calma 4 Norte 0 -- -- 92
2019-09-29 02:00:00 19.9 0 Calma 4 Noroeste 0 -- -- 92
2019-09-29 01:00:00 19.7 0 Calma 4 Nordeste 0.1 -- -- 91
2019-09-29 00:00:00 19.9 0 Calma 4 Nordeste 0 -- -- 90
2019-09-28 23:00:00 20.7 0 Calma 4 Norte 0 -- -- 88
2019-09-28 22:00:00 21.6 3 Norte 7 Norte 0 -- -- 83
2019-09-28 21:00:00 21.6 3 Nordeste 10 Norte 0 -- -- 81
2019-09-28 20:00:00 21.8 4 Norte 11 Nordeste 0 -- -- 79
2019-09-28 19:00:00 22.4 4 Nordeste 13 Nordeste 0 -- -- 75
2019-09-28 18:00:00 23.1 4 Nordeste 13 Nordeste 0 -- -- 73
2019-09-28 17:00:00 23.1 5 Nordeste 15 Nordeste 0.1 -- -- 73
2019-09-28 16:00:00 23 6 Nordeste 19 Nordeste 0 -- -- 73
2019-09-28 15:00:00 23.3 8 Nordeste 17 Nordeste 0 -- -- 72
2019-09-28 14:00:00 23.1 7 Nordeste 23 Norte 0 -- -- 75
2019-09-28 13:00:00 24.5 9 Norte 26 Norte 0 -- -- 64
2019-09-28 12:00:00 24.4 9 Norte 22 Norte 0 -- -- 61
2019-09-28 11:00:00 23.7 9 Norte 21 Norte 0 -- -- 59
2019-09-28 10:00:00 24.1 0 Calma 9 Sudoeste 0 -- -- 63
2019-09-28 09:00:00 21.8 2 Noroeste 8 Noroeste 0 -- -- 65
2019-09-28 08:00:00 20 0 Calma 8 Norte 0.1 -- -- 89
2019-09-28 07:00:00 20.6 4 Norte 8 Norte 0 -- -- 89
2019-09-28 06:00:00 20.8 3 Norte 8 Nordeste 0 -- -- 90
2019-09-28 05:00:00 20.8 4 Nordeste 10 Nordeste 0 -- -- 90
2019-09-28 04:00:00 20.9 3 Norte 10 Nordeste 0 -- -- 90
2019-09-28 03:00:00 20.1 3 Nordeste 5 Norte 0 -- -- 90
2019-09-28 02:00:00 20.5 0 Calma 4 Nordeste 0 -- -- 90
2019-09-28 01:00:00 21 0 Calma 5 Noroeste 0 -- -- 89
2019-09-28 00:00:00 21.3 0 Calma 6 Sudoeste 0 -- -- 89
2019-09-27 23:00:00 22.4 3 Sudoeste 9 Sudoeste 0.1 -- -- 86
2019-09-27 22:00:00 22.8 5 Sudoeste 9 Sudoeste 0 -- -- 86
2019-09-27 21:00:00 22.8 0 Calma 4 Sur 0 -- -- 86
2019-09-27 20:00:00 23.1 2 Sur 7 Sudeste 0 -- -- 84
2019-09-27 19:00:00 24.1 4 Sur 9 Sur 0 -- -- 78
2019-09-27 18:00:00 25.2 4 Sur 13 Sudoeste 0 -- -- 72
2019-09-27 17:00:00 25.3 4 Sudeste 11 Sudeste 0 -- -- 73
2019-09-27 16:00:00 25.8 5 Este 13 Este 0 -- -- 72
2019-09-27 15:00:00 25.5 3 Este 10 Este 0.1 -- -- 72
2019-09-27 14:00:00 25.2 5 Este 13 Este 0 -- -- 72
2019-09-27 13:00:00 26.4 5 Nordeste 13 Nordeste 0 -- -- 67
2019-09-27 12:00:00 25.8 6 Nordeste 14 Nordeste 0 -- -- 68
2019-09-27 11:00:00 24.4 5 Este 13 Este 0 -- -- 72
2019-09-27 10:00:00 23.3 4 Este 9 Este 0 -- -- 79
2019-09-27 09:00:00 21.9 3 Nordeste 6 Nordeste 0 -- -- 89
2019-09-27 08:00:00 20.7 0 Calma 5 Nordeste 0 -- -- 91
2019-09-27 07:00:00 20.5 0 Calma 6 Nordeste 0.1 -- -- 91
2019-09-27 06:00:00 20.6 0 Calma 3 Norte 0 -- -- 91
2019-09-27 05:00:00 20.5 0 Calma 5 Nordeste 0 -- -- 91
2019-09-27 04:00:00 20.1 0 Calma -- -- 0 -- -- 91
2019-09-27 03:00:00 20.5 0 Calma 4 Sudoeste 0 -- -- 89
2019-09-27 02:00:00 20.8 3 Sudoeste 5 Sudoeste 0 -- -- 89
2019-09-27 01:00:00 21.3 0 Calma 10 Sudoeste 0 -- -- 88
2019-09-27 00:00:00 21.8 6 Sudoeste 15 Sudoeste 0 -- -- 87
2019-09-26 23:00:00 22 6 Sudoeste 14 Sudoeste 0.1 -- -- 86
2019-09-26 22:00:00 22.4 6 Sudoeste 14 Sudoeste 0 -- -- 83
2019-09-26 21:00:00 22.4 6 Sudoeste 14 Sudoeste 0 -- -- 78
2019-09-26 20:00:00 22.9 4 Sudoeste 16 Sudoeste 0 -- -- 74
2019-09-26 19:00:00 24 5 Sur 17 Sur 0 -- -- 71
2019-09-26 18:00:00 24.7 6 Sur 19 Sur 0 -- -- 65
2019-09-26 17:00:00 24.9 7 Sur 20 Sur 0 -- -- 66
2019-09-26 16:00:00 24.7 10 Sur 20 Sur 0 -- -- 66
2019-09-26 15:00:00 26.4 5 Sur 15 Sur 0.1 -- -- 52
2019-09-26 14:00:00 25.6 7 Sur 16 Sur 0 -- -- 47
2019-09-26 13:00:00 26.2 4 Sudeste 16 Sur 0 -- -- 44
2019-09-26 12:00:00 25.3 8 Sur 19 Sur 0 -- -- 44
2019-09-26 11:00:00 25.7 6 Sur 14 Noroeste 0 -- -- 40
2019-09-26 10:00:00 23.5 2 Oeste 10 Sudoeste 0 -- -- 49
2019-09-26 09:00:00 21.3 0 Calma 22 Sudoeste 0 -- -- 52
2019-09-26 08:00:00 19.7 0 Calma 17 Oeste 0 -- -- 54
2019-09-26 07:00:00 19.1 5 Sudoeste 14 Sudoeste 0 -- -- 54
2019-09-26 06:00:00 19.1 4 Sudoeste 19 Sudoeste 0 -- -- 54
2019-09-26 05:00:00 20.9 8 Sudoeste 18 Sudoeste 0.1 -- -- 47
2019-09-26 04:00:00 20.9 10 Sudoeste 21 Sudoeste 0 -- -- 49
2019-09-26 03:00:00 18.4 4 Sudoeste 8 Sudoeste 0 -- -- 67
2019-09-26 02:00:00 18.9 0 Calma 4 Noroeste 0 -- -- 80
2019-09-26 01:00:00 19.6 3 Noroeste 6 Noroeste 0 -- -- 79
2019-09-26 00:00:00 20.2 2 Noroeste 7 Sudoeste 0 -- -- 78
2019-09-25 23:00:00 21.2 4 Sudoeste 9 Sudoeste 0 -- -- 73
2019-09-25 22:00:00 21.7 5 Sudoeste 9 Sudoeste 0 -- -- 71
2019-09-25 21:00:00 22 5 Sudoeste 14 Sur 0.1 -- -- 71
2019-09-25 20:00:00 22.7 4 Sur 12 Sur 0 -- -- 69
2019-09-25 19:00:00 23.7 0 Calma 15 Este 0 -- -- 61
2019-09-25 18:00:00 27 6 Oeste 28 Noroeste 0 -- -- 32
2019-09-25 17:00:00 26.2 10 Noroeste 30 Noroeste 0 -- -- 32
2019-09-25 16:00:00 26.2 7 Noroeste 30 Sudoeste 0 -- -- 33
2019-09-25 15:00:00 26.9 4 Oeste 30 Sudoeste 0 -- -- 35
2019-09-25 14:00:00 26.8 4 Sur 31 Nordeste 0 -- -- 35
2019-09-25 13:00:00 25.7 6 Norte 27 Noroeste 0 -- -- 38
2019-09-25 12:00:00 24.2 8 Este 19 Este 0 -- -- 45
2019-09-25 11:00:00 23.7 3 Este 21 Este 0.1 -- -- 45
2019-09-25 10:00:00 22.1 7 Este 20 Este 0 -- -- 52
2019-09-25 09:00:00 22 3 Sudeste 13 Noroeste 0 -- -- 56
2019-09-25 08:00:00 21 0 Calma 11 Este 0 -- -- 69
2019-09-25 07:00:00 20.3 2 Nordeste 9 Este 0 -- -- 92
2019-09-25 06:00:00 20.6 2 Nordeste 8 Norte 0 -- -- 92
2019-09-25 05:00:00 21 4 Nordeste 11 Nordeste 0 -- -- 91
2019-09-25 04:00:00 21.3 5 Norte 19 Nordeste 0.1 -- -- 88
2019-09-25 03:00:00 21.1 3 Norte 14 Este 0 -- -- 85
2019-09-25 02:00:00 20.6 0 Calma 6 Nordeste 0 -- -- 88
2019-09-25 01:00:00 20.4 0 Calma 4 Noroeste 0 -- -- 86
2019-09-25 00:00:00 20.5 0 Calma 5 Norte 0 -- -- 79
2019-09-24 23:00:00 20.9 2 Nordeste 8 Norte 0 -- -- 81
2019-09-24 22:00:00 21.3 0 Calma 6 Sudoeste 0 -- -- 74
2019-09-24 21:00:00 22.6 0 Calma 12 Sudoeste 0 -- -- 70
2019-09-24 20:00:00 23.8 4 Sudoeste 15 Sudoeste 0.1 -- -- 61
2019-09-24 19:00:00 25 5 Sur 21 Sur 0 -- -- 67
2019-09-24 18:00:00 25.8 7 Sur 20 Sur 0 -- -- 64
2019-09-24 17:00:00 26.3 7 Sur 20 Sur 0 -- -- 61
2019-09-24 16:00:00 26.3 7 Sur 21 Sudeste 0 -- -- 65
2019-09-24 15:00:00 26.7 5 Sur 18 Sur 0 -- -- 67
2019-09-24 14:00:00 27 8 Sur 25 Sur 0 -- -- 55
2019-09-24 13:00:00 25.9 9 Sur 27 Sudeste 0.1 -- -- 55
2019-09-24 12:00:00 28 5 Noroeste 22 Sudeste 0 -- -- 36
2019-09-24 11:00:00 25.1 5 Sudeste 21 Sudeste 0 -- -- 48
2019-09-24 10:00:00 22.1 3 Este 8 Este 0 -- -- 74
2019-09-24 09:00:00 19 0 Calma 5 Sudoeste 0 -- -- 87
2019-09-24 08:00:00 17 0 Calma 3 Norte 0 -- -- 90
2019-09-24 07:00:00 17.2 0 Calma 3 Norte 0 -- -- 89
2019-09-24 06:00:00 17.6 0 Calma 6 Sudoeste 0.1 -- -- 87
2019-09-24 05:00:00 17.9 0 Calma 4 Sudoeste 0 -- -- 84
2019-09-24 04:00:00 17.6 0 Calma 6 Noroeste 0 -- -- 85
2019-09-24 03:00:00 18.3 2 Norte 4 Noroeste 0 -- -- 83
2019-09-24 02:00:00 18.5 0 Calma 5 Noroeste 0 -- -- 83
2019-09-24 01:00:00 19.5 0 Calma 12 Sudoeste 0 -- -- 80
2019-09-24 00:00:00 20.9 5 Sudoeste 17 Sudoeste 0 -- -- 74
2019-09-23 23:00:00 21.4 6 Sudoeste 16 Sudoeste 0.1 -- -- 74
2019-09-23 22:00:00 21.4 6 Sudoeste 18 Sudoeste 0 -- -- 74
2019-09-23 21:00:00 21.6 8 Sudoeste 15 Sudoeste 0 -- -- 72
2019-09-23 20:00:00 21.8 6 Sudoeste 15 Sudoeste 0 -- -- 70
2019-09-23 19:00:00 22.6 6 Sudoeste 23 Sudoeste 0 -- -- 64
2019-09-23 18:00:00 22.9 6 Sur 17 Sur 0 -- -- 63
2019-09-23 17:00:00 23.1 7 Sur 22 Sur 0 -- -- 61
2019-09-23 16:00:00 24.2 8 Sur 21 Sur 0.1 -- -- 57
2019-09-23 15:00:00 25 9 Sur 21 Sur 0 -- -- 54
2019-09-23 14:00:00 24.7 10 Sur 20 Sur 0 -- -- 54
2019-09-23 13:00:00 24.9 8 Sudeste 19 Sur 0 -- -- 54
2019-09-23 12:00:00 24.9 4 Sur 15 Sudeste 0 -- -- 56
2019-09-23 11:00:00 23.6 5 Sur 13 Sur 0 -- -- 60
2019-09-23 10:00:00 21.7 4 Sur 8 Sur 0.1 -- -- 73
2019-09-23 09:00:00 20.5 0 Calma 8 Sudoeste 0 -- -- 80
2019-09-23 08:00:00 18.8 0 Calma 7 Norte 0 -- -- 88
2019-09-23 07:00:00 19 3 Norte 9 Nordeste 0 -- -- 82
2019-09-23 06:00:00 19.4 4 Norte 10 Norte 0 -- -- 61
2019-09-23 05:00:00 20.5 6 Norte 22 Norte 0 -- -- 45
2019-09-23 04:00:00 21.6 7 Nordeste 22 Nordeste 0 -- -- 41
2019-09-23 03:00:00 21.5 0 Calma 10 Sudeste 0.1 -- -- 41
2019-09-23 02:00:00 21.9 2 Sudeste 27 Norte 0 -- -- 43
2019-09-23 01:00:00 23.1 5 Noroeste 32 Norte 0 -- -- 42
2019-09-23 00:00:00 24 11 Noroeste 34 Norte 0 -- -- 41
2019-09-22 23:00:00 21.6 3 Sur 10 Sudeste 0 -- -- 66
2019-09-22 22:00:00 21.1 3 Norte 13 Norte 0 -- -- 71
2019-09-22 21:00:00 20.2 3 Sur 10 Sur 0.1 -- -- 86
2019-09-22 20:00:00 20.3 5 Norte 18 Norte 0 -- -- 86
2019-09-22 19:00:00 20.7 6 Noroeste 36 Noroeste 0 -- -- 89
2019-09-22 18:00:00 24.8 4 Sur 17 Sur 0 -- -- 70
2019-09-22 17:00:00 24.9 6 Sur 21 Sur 0 -- -- 71
2019-09-22 16:00:00 25.9 7 Sur 17 Sur 0.1 -- -- 69
2019-09-22 15:00:00 25.7 8 Sur 15 Sudeste 0 -- -- 69
2019-09-22 14:00:00 26.3 5 Sudeste 13 Sudeste 0 -- -- 67
2019-09-22 13:00:00 25.6 7 Sudeste 14 Sudeste 0 -- -- 69
2019-09-22 12:00:00 24.9 6 Este 15 Este 0 -- -- 69
2019-09-22 11:00:00 24.3 5 Este 10 Este 0.1 -- -- 73
2019-09-22 10:00:00 21.9 3 Nordeste 6 Nordeste 0 -- -- 84
2019-09-22 09:00:00 21.1 0 Calma 5 Nordeste 0 -- -- 88
2019-09-22 08:00:00 20.1 0 Calma 8 Norte 0 -- -- 89
2019-09-22 07:00:00 19.8 3 Nordeste 8 Nordeste 0 -- -- 88
2019-09-22 06:00:00 19.9 4 Nordeste 13 Nordeste 0 -- -- 86
2019-09-22 05:00:00 20.4 4 Nordeste 10 Nordeste 0.1 -- -- 87
2019-09-22 04:00:00 20.4 3 Norte 8 Nordeste 0 -- -- 88
2019-09-22 03:00:00 20 3 Nordeste 10 Nordeste 0 -- -- 90
2019-09-22 02:00:00 20.2 2 Norte 11 Nordeste 0 -- -- 90
2019-09-22 01:00:00 20.5 4 Norte 13 Norte 0 -- -- 87
2019-09-22 00:00:00 20.8 4 Nordeste 18 Nordeste 0.1 -- -- 84
2019-09-21 23:00:00 21.4 6 Este 17 Este 0 -- -- 83
2019-09-21 22:00:00 21.6 6 Nordeste 15 Este 0 -- -- 81
2019-09-21 21:00:00 21.8 6 Este 18 Sudeste 0 -- -- 85
2019-09-21 20:00:00 22.2 5 Nordeste 17 Este 0.1 -- -- 86
2019-09-21 19:00:00 22.2 5 Nordeste 19 Nordeste 0 -- -- 84
2019-09-21 18:00:00 22.5 9 Nordeste 22 Nordeste 0 -- -- 84
2019-09-21 17:00:00 23.6 8 Nordeste 19 Nordeste 0 -- -- 79
2019-09-21 16:00:00 23.3 8 Nordeste 22 Este 0.1 -- -- 81
2019-09-21 15:00:00 26 8 Este 17 Sudeste 0 -- -- 68
2019-09-21 14:00:00 26.3 7 Este 22 Nordeste 0.1 -- -- 64
2019-09-21 13:00:00 23.4 6 Nordeste 15 Nordeste 0 -- -- 73
2019-09-21 12:00:00 23.3 5 Norte 15 Norte 0.1 -- -- 78
2019-09-21 11:00:00 19.5 6 Nordeste 11 Nordeste 0.1 -- -- 90
2019-09-21 10:00:00 18.9 0 Calma 9 Sudoeste 0.1 -- -- 93
2019-09-21 09:00:00 18.4 3 Oeste 10 Norte 0.1 -- -- 93
2019-09-21 08:00:00 18.5 3 Noroeste 21 Noroeste 0.2 -- -- 88
2019-09-21 07:00:00 19.3 4 Norte 16 Norte 0.2 -- -- 91
2019-09-21 06:00:00 19.1 6 Nordeste 23 Nordeste 0.2 -- -- 93
2019-09-21 05:00:00 19 12 Norte 23 Norte 0.1 -- -- 94
2019-09-21 04:00:00 21.1 7 Norte 22 Norte 0 -- -- 79
2019-09-21 03:00:00 21.2 7 Norte 23 Nordeste 0 -- -- 79
2019-09-21 02:00:00 21.4 7 Norte 28 Nordeste 0 -- -- 80
2019-09-21 01:00:00 21.9 8 Nordeste 23 Nordeste 0 -- -- 82
2019-09-21 00:00:00 21.8 8 Nordeste 20 Nordeste 0 -- -- 80
2019-09-20 23:00:00 21.6 7 Nordeste 17 Nordeste 0 -- -- 78
2019-09-20 22:00:00 21.8 7 Nordeste 19 Nordeste 0 -- -- 79
2019-09-20 21:00:00 22 5 Nordeste 13 Nordeste 0 -- -- 76
2019-09-20 20:00:00 22.4 3 Nordeste 12 Este 0 -- -- 72
2019-09-20 19:00:00 23.2 4 Nordeste 10 Nordeste 0 -- -- 67
2019-09-20 18:00:00 23.7 4 Este 13 Este 0 -- -- 66
2019-09-20 17:00:00 24.3 5 Este 15 Este 0 -- -- 67
2019-09-20 16:00:00 24.6 6 Nordeste 17 Nordeste 0 -- -- 65
2019-09-20 15:00:00 24.1 7 Nordeste 21 Este 0 -- -- 68
2019-09-20 14:00:00 25 8 Nordeste 21 Este 0 -- -- 65
2019-09-20 13:00:00 25.7 9 Nordeste 26 Nordeste 0 -- -- 65
2019-09-20 12:00:00 23.7 10 Nordeste 22 Nordeste 0 -- -- 69
2019-09-20 11:00:00 23.8 9 Nordeste 22 Nordeste 0 -- -- 68
2019-09-20 10:00:00 22.6 6 Nordeste 16 Nordeste 0 -- -- 70
2019-09-20 09:00:00 21.1 5 Nordeste 12 Nordeste 0 -- -- 76
2019-09-20 08:00:00 20.5 5 Nordeste 14 Norte 0 -- -- 75
2019-09-20 07:00:00 21 6 Nordeste 13 Nordeste 0 -- -- 81
2019-09-20 06:00:00 21 5 Norte 13 Norte 0 -- -- 82
2019-09-20 05:00:00 20.6 5 Nordeste 12 Nordeste 0 -- -- 75
2019-09-20 04:00:00 20.4 3 Nordeste 8 Nordeste 0 -- -- 88
2019-09-20 03:00:00 20.4 3 Nordeste 8 Norte 0 -- -- 88
2019-09-20 02:00:00 20.3 3 Norte 8 Nordeste 0 -- -- 86
2019-09-20 01:00:00 20.8 4 Norte 14 Nordeste 0 -- -- 83
2019-09-20 00:00:00 21 5 Norte 12 Nordeste 0 -- -- 82
2019-09-19 23:00:00 20.9 4 Norte 9 Nordeste 0 -- -- 83
2019-09-19 22:00:00 21 4 Norte 8 Nordeste 0 -- -- 83
2019-09-19 21:00:00 21.5 3 Norte 6 Nordeste 0 -- -- 81
2019-09-19 20:00:00 22.5 0 Calma 8 Nordeste 0 -- -- 75
2019-09-19 19:00:00 23.3 3 Nordeste 8 Nordeste 0 -- -- 73
2019-09-19 18:00:00 23.5 3 Nordeste 9 Este 0 -- -- 72
2019-09-19 17:00:00 24 3 Este 14 Este 0 -- -- 69
2019-09-19 16:00:00 25.2 7 Este 17 Este 0 -- -- 65
2019-09-19 15:00:00 26.9 5 Sudeste 15 Este 0 -- -- 60
2019-09-19 14:00:00 26.6 6 Sudeste 16 Este 0 -- -- 59
2019-09-19 13:00:00 26.4 7 Sudeste 15 Este 0 -- -- 64
2019-09-19 12:00:00 26 8 Este 15 Este 0 -- -- 66
2019-09-19 11:00:00 25.5 7 Este 15 Este 0 -- -- 64
2019-09-19 10:00:00 24.4 6 Nordeste 17 Este 0 -- -- 66
2019-09-19 09:00:00 22.5 7 Nordeste 18 Norte 0 -- -- 74
2019-09-19 08:00:00 21.1 3 Norte 8 Nordeste 0 -- -- 76
2019-09-19 07:00:00 21.2 4 Nordeste 11 Norte 0 -- -- 81
2019-09-19 06:00:00 21.4 5 Norte 17 Nordeste 0 -- -- 78
2019-09-19 05:00:00 21.2 4 Norte 12 Nordeste 0 -- -- 78
2019-09-19 04:00:00 21.3 6 Norte 12 Nordeste 0 -- -- 73
2019-09-19 03:00:00 21.7 0 Calma 3 Nordeste 0 -- -- 69
2019-09-19 02:00:00 21.7 3 Nordeste 12 Sur 0 -- -- 74
2019-09-19 01:00:00 22.1 4 Sudoeste 10 Sudoeste 0 -- -- 82
2019-09-19 00:00:00 22.1 0 Calma 7 Norte 0 -- -- 83
2019-09-18 23:00:00 22.5 2 Norte 12 Norte 0 -- -- 78
2019-09-18 22:00:00 22.4 3 Nordeste 9 Nordeste 0 -- -- 74
2019-09-18 21:00:00 23 2 Norte 9 Nordeste 0 -- -- 77
2019-09-18 20:00:00 24.3 4 Este 22 Nordeste 0 -- -- 70
2019-09-18 19:00:00 24.9 3 Este 8 Este 0 -- -- 70
2019-09-18 18:00:00 25.5 0 Calma 11 Sur 0 -- -- 68
2019-09-18 17:00:00 25.4 6 Sur 14 Sudeste 0 -- -- 65
2019-09-18 16:00:00 25.8 5 Sur 16 Sudeste 0 -- -- 75
2019-09-18 15:00:00 27.9 5 Este 12 Sudeste 0 -- -- 54
2019-09-18 14:00:00 28.8 4 Sur 10 Sudeste 0 -- -- 51
2019-09-18 13:00:00 27.4 4 Sudeste 12 Sudeste 0 -- -- 58
2019-09-18 12:00:00 26.9 5 Este 11 Este 0 -- -- 61
2019-09-18 11:00:00 25.6 6 Este 10 Este 0 -- -- 69
2019-09-18 10:00:00 23.7 3 Este 7 Nordeste 0 -- -- 69
2019-09-18 09:00:00 21.7 2 Nordeste 5 Nordeste 0 -- -- 79
2019-09-18 08:00:00 20.3 0 Calma 9 Oeste 0 -- -- 85
2019-09-18 07:00:00 20.1 0 Calma 8 Nordeste 0 -- -- 77
2019-09-18 06:00:00 20.1 2 Nordeste 8 Oeste 0 -- -- 70
2019-09-18 05:00:00 20.8 3 Sur 13 Sudoeste 0 -- -- 76
2019-09-18 04:00:00 21.4 3 Sudoeste 11 Sudoeste 0 -- -- 83
2019-09-18 03:00:00 21.3 6 Sudoeste 12 Sudoeste 0 -- -- 72
2019-09-18 02:00:00 20.3 3 Norte 8 Nordeste 0 -- -- 70
2019-09-18 01:00:00 20.5 4 Norte 10 Nordeste 0 -- -- 65
2019-09-18 00:00:00 21.2 2 Sur 11 Sudoeste 0 -- -- 78
2019-09-17 23:00:00 20.9 0 Calma 9 Sudoeste 0 -- -- 80
2019-09-17 22:00:00 21.7 3 Sudoeste 10 Oeste 0 -- -- 79
2019-09-17 21:00:00 22.5 6 Sudoeste 10 Sudoeste 0 -- -- 78